Time;durP1;ratioP1;P1;durP2;ratioP2;P2;SDS_P1;SDS_P2;PMS_P1;PMS_P2;Temp;Humidity;BMP_temperature;BMP_pressure;BME280_temperature;BME280_humidity;BME280_pressure;Samples;Min_cycle;Max_cycle;Signal;HPM_P1;HPM_P2
2022/08/29 00:01:35;;;;;;;0.00;0.00;;;;;;;;;;5034500;28;20048;-84
2022/08/29 00:04:02;;;;;;;0.00;0.00;;;;;;;;;;5033422;28;20048;-84
2022/08/29 00:06:28;;;;;;;0.00;0.00;;;;;;;;;;5016334;28;20045;-84
2022/08/29 00:08:54;;;;;;;0.00;0.00;;;;;;;;;;5034526;28;20489;-85
2022/08/29 00:11:20;;;;;;;0.00;0.00;;;;;;;;;;5034515;28;20041;-84
2022/08/29 00:13:46;;;;;;;0.00;0.00;;;;;;;;;;5034527;28;20360;-85
2022/08/29 00:16:12;;;;;;;0.00;0.00;;;;;;;;;;5033239;28;20046;-87
2022/08/29 00:18:38;;;;;;;0.00;0.00;;;;;;;;;;5034483;28;20041;-87
2022/08/29 00:21:05;;;;;;;0.00;0.00;;;;;;;;;;5032796;28;20096;-85
2022/08/29 00:23:31;;;;;;;0.00;0.00;;;;;;;;;;5034250;28;20038;-86
2022/08/29 00:25:57;;;;;;;0.00;0.00;;;;;;;;;;5016741;28;20041;-86
2022/08/29 00:28:24;;;;;;;0.00;0.00;;;;;;;;;;5032672;28;20484;-87
2022/08/29 00:30:50;;;;;;;0.00;0.00;;;;;;;;;;5033913;28;20058;-86
2022/08/29 00:33:16;;;;;;;0.00;0.00;;;;;;;;;;5032687;28;20053;-86
2022/08/29 00:35:45;;;;;;;0.00;0.00;;;;;;;;;;5032912;28;20042;-86
2022/08/29 00:38:12;;;;;;;0.00;0.00;;;;;;;;;;5032650;28;20106;-86
2022/08/29 00:40:41;;;;;;;0.00;0.00;;;;;;;;;;5033981;28;20045;-88
2022/08/29 00:43:07;;;;;;;0.00;0.00;;;;;;;;;;5033886;28;20069;-88
2022/08/29 00:45:33;;;;;;;0.00;0.00;;;;;;;;;;5034088;28;20037;-89
2022/08/29 00:48:02;;;;;;;0.00;0.00;;;;;;;;;;5033612;28;20116;-87
2022/08/29 00:50:31;;;;;;;0.00;0.00;;;;;;;;;;5032543;28;20042;-86
2022/08/29 00:52:57;;;;;;;0.00;0.00;;;;;;;;;;5032154;28;20045;-86
2022/08/29 00:55:24;;;;;;;0.00;0.00;;;;;;;;;;5032259;28;20073;-87
2022/08/29 00:57:54;;;;;;;0.00;0.00;;;;;;;;;;5033620;28;20048;-86
2022/08/29 01:00:20;;;;;;;0.00;0.00;;;;;;;;;;5033574;28;20045;-88
2022/08/29 01:02:47;;;;;;;0.00;0.00;;;;;;;;;;5032041;28;20046;-86
2022/08/29 01:05:15;;;;;;;0.00;0.00;;;;;;;;;;5033492;28;20044;-86
2022/08/29 01:07:41;;;;;;;0.00;0.00;;;;;;;;;;5032157;28;20386;-86
2022/08/29 01:10:08;;;;;;;0.00;0.00;;;;;;;;;;5033574;28;20049;-85
2022/08/29 01:12:35;;;;;;;0.00;0.00;;;;;;;;;;5033366;28;20045;-85
2022/08/29 01:15:06;;;;;;;0.00;0.00;;;;;;;;;;5032370;28;20454;-87
2022/08/29 01:17:34;;;;;;;0.00;0.00;;;;;;;;;;5031947;28;20041;-86
2022/08/29 01:20:27;;;;;;;0.00;0.00;;;;;;;;;;5032071;28;20500;-86
2022/08/29 01:23:05;;;;;;;0.00;0.00;;;;;;;;;;5032240;28;20041;-86
2022/08/29 01:25:34;;;;;;;0.00;0.00;;;;;;;;;;5032153;28;20095;-87
2022/08/29 01:28:06;;;;;;;0.00;0.00;;;;;;;;;;5033124;28;20033;-87
2022/08/29 01:30:33;;;;;;;0.00;0.00;;;;;;;;;;5032902;28;20440;-86
2022/08/29 01:32:59;;;;;;;0.00;0.00;;;;;;;;;;5031831;28;20272;-86
2022/08/29 01:35:26;;;;;;;0.00;0.00;;;;;;;;;;5033171;28;20045;-86
2022/08/29 01:37:52;;;;;;;0.00;0.00;;;;;;;;;;5033094;28;20431;-86
2022/08/29 01:40:18;;;;;;;0.00;0.00;;;;;;;;;;5031788;28;20041;-86
2022/08/29 01:42:45;;;;;;;0.00;0.00;;;;;;;;;;5032673;28;20071;-86
2022/08/29 01:45:11;;;;;;;0.00;0.00;;;;;;;;;;5031669;28;20049;-84
2022/08/29 01:47:38;;;;;;;0.00;0.00;;;;;;;;;;5031600;28;20064;-85
2022/08/29 01:50:05;;;;;;;0.00;0.00;;;;;;;;;;5031556;28;20045;-86
2022/08/29 01:52:31;;;;;;;0.00;0.00;;;;;;;;;;5014873;28;20037;-86
2022/08/29 01:54:58;;;;;;;0.00;0.00;;;;;;;;;;5032806;28;20504;-86
2022/08/29 01:57:24;;;;;;;0.00;0.00;;;;;;;;;;5032491;28;20378;-86
2022/08/29 01:59:50;;;;;;;0.00;0.00;;;;;;;;;;5032881;28;20051;-86
2022/08/29 02:02:25;;;;;;;0.00;0.00;;;;;;;;;;5031301;28;20041;-86
2022/08/29 02:04:51;;;;;;;0.00;0.00;;;;;;;;;;5032957;28;20063;-82
2022/08/29 02:07:18;;;;;;;0.00;0.00;;;;;;;;;;5031405;28;20579;-84
2022/08/29 02:09:44;;;;;;;0.00;0.00;;;;;;;;;;5032720;28;20045;-85
2022/08/29 02:12:10;;;;;;;0.00;0.00;;;;;;;;;;5032585;28;20041;-86
2022/08/29 02:14:36;;;;;;;0.00;0.00;;;;;;;;;;5031627;28;20123;-85
2022/08/29 02:17:03;;;;;;;0.17;0.00;;;;;;;;;;5031324;28;20132;-85
2022/08/29 02:19:30;;;;;;;0.00;0.00;;;;;;;;;;5031298;28;20050;-84
2022/08/29 02:21:56;;;;;;;0.00;0.00;;;;;;;;;;5031469;28;20053;-83
2022/08/29 02:24:22;;;;;;;0.00;0.00;;;;;;;;;;5032601;28;20046;-82
2022/08/29 02:26:48;;;;;;;0.00;0.00;;;;;;;;;;5032562;28;20133;-85
2022/08/29 02:29:14;;;;;;;0.00;0.00;;;;;;;;;;5031386;28;20123;-84
2022/08/29 02:31:41;;;;;;;0.00;0.00;;;;;;;;;;5035038;28;20417;-83
2022/08/29 02:34:07;;;;;;;0.00;0.00;;;;;;;;;;5034897;28;20046;-83
2022/08/29 02:36:34;;;;;;;0.00;0.00;;;;;;;;;;5036421;28;20380;-82
2022/08/29 02:39:00;;;;;;;0.00;0.00;;;;;;;;;;5034732;28;20472;-84
2022/08/29 02:41:26;;;;;;;0.00;0.00;;;;;;;;;;5034689;28;20037;-86
2022/08/29 02:43:52;;;;;;;0.00;0.00;;;;;;;;;;5036173;28;20381;-85
2022/08/29 02:46:19;;;;;;;0.00;0.00;;;;;;;;;;5036402;28;20071;-85
2022/08/29 02:48:45;;;;;;;0.00;0.00;;;;;;;;;;5034845;28;20120;-86
2022/08/29 02:51:18;;;;;;;0.00;0.00;;;;;;;;;;5036086;28;20037;-85
2022/08/29 02:53:44;;;;;;;0.00;0.00;;;;;;;;;;5036061;28;20041;-84
2022/08/29 02:56:10;;;;;;;0.00;0.00;;;;;;;;;;5034944;28;20046;-83
2022/08/29 02:58:36;;;;;;;0.00;0.00;;;;;;;;;;5034452;28;20057;-84
2022/08/29 03:01:03;;;;;;;0.00;0.00;;;;;;;;;;5034655;28;20124;-85
2022/08/29 03:03:29;;;;;;;0.00;0.00;;;;;;;;;;5017678;28;20073;-85
2022/08/29 03:05:55;;;;;;;0.00;0.00;;;;;;;;;;5034781;28;20144;-88
2022/08/29 03:08:21;;;;;;;0.00;0.00;;;;;;;;;;5034248;28;20046;-86
2022/08/29 03:10:47;;;;;;;0.00;0.00;;;;;;;;;;5034593;28;20393;-85
2022/08/29 03:13:13;;;;;;;0.00;0.00;;;;;;;;;;5035261;28;20045;-85
2022/08/29 03:15:40;;;;;;;0.00;0.00;;;;;;;;;;5034324;28;20120;-87
2022/08/29 03:18:06;;;;;;;0.00;0.00;;;;;;;;;;5034038;28;20053;-84
2022/08/29 03:20:33;;;;;;;0.00;0.00;;;;;;;;;;5034151;28;20099;-84
2022/08/29 03:22:59;;;;;;;0.00;0.00;;;;;;;;;;5034145;28;20385;-84
2022/08/29 03:25:25;;;;;;;0.00;0.00;;;;;;;;;;5035265;28;20374;-84
2022/08/29 03:27:51;;;;;;;0.38;0.10;;;;;;;;;;5035406;28;20037;-84
2022/08/29 03:30:18;;;;;;;0.00;0.00;;;;;;;;;;5033836;28;20061;-84
2022/08/29 03:32:44;;;;;;;0.00;0.00;;;;;;;;;;5035444;28;20259;-83
2022/08/29 03:35:11;;;;;;;0.00;0.00;;;;;;;;;;5033966;28;20128;-85
2022/08/29 03:37:37;;;;;;;0.00;0.00;;;;;;;;;;5033935;28;20089;-86
2022/08/29 03:40:05;;;;;;;0.00;0.00;;;;;;;;;;5034934;28;20049;-86
2022/08/29 03:42:31;;;;;;;0.00;0.00;;;;;;;;;;5034093;28;20373;-84
2022/08/29 03:44:57;;;;;;;0.00;0.00;;;;;;;;;;5034880;28;20075;-85
2022/08/29 03:47:23;;;;;;;0.00;0.00;;;;;;;;;;5035105;28;20056;-85
2022/08/29 03:49:49;;;;;;;0.00;0.00;;;;;;;;;;5033501;28;20084;-84
2022/08/29 03:52:15;;;;;;;0.00;0.00;;;;;;;;;;5034921;28;20084;-86
2022/08/29 03:54:41;;;;;;;0.00;0.00;;;;;;;;;;5033431;28;20045;-86
2022/08/29 03:57:08;;;;;;;0.00;0.00;;;;;;;;;;5035051;28;20048;-85
2022/08/29 03:59:35;;;;;;;0.00;0.00;;;;;;;;;;5034664;28;20080;-86
2022/08/29 04:02:01;;;;;;;0.00;0.00;;;;;;;;;;5016820;28;20059;-87
2022/08/29 04:07:13;;;;;;;0.00;0.00;;;;;;;;;;5034844;28;20045;-85
2022/08/29 04:09:40;;;;;;;0.00;0.00;;;;;;;;;;5016479;28;20041;-86
2022/08/29 04:12:07;;;;;;;0.00;0.00;;;;;;;;;;5033171;28;20042;-86
2022/08/29 04:14:33;;;;;;;0.00;0.00;;;;;;;;;;5032951;28;20038;-84
2022/08/29 04:17:00;;;;;;;0.00;0.00;;;;;;;;;;5034448;28;20041;-84
2022/08/29 04:19:26;;;;;;;0.00;0.00;;;;;;;;;;5033108;28;20476;-84
2022/08/29 04:21:52;;;;;;;0.00;0.00;;;;;;;;;;5032940;28;20050;-85
2022/08/29 04:24:18;;;;;;;0.00;0.00;;;;;;;;;;5032920;28;20076;-85
2022/08/29 04:26:44;;;;;;;0.00;0.00;;;;;;;;;;5034337;28;20046;-85
2022/08/29 04:29:12;;;;;;;0.00;0.00;;;;;;;;;;5033062;28;20037;-85
2022/08/29 04:31:39;;;;;;;0.00;0.00;;;;;;;;;;5033879;28;20065;-86
2022/08/29 04:34:06;;;;;;;0.00;0.00;;;;;;;;;;5032458;28;20060;-86
2022/08/29 04:36:35;;;;;;;0.00;0.00;;;;;;;;;;5034230;28;20044;-86
2022/08/29 04:39:01;;;;;;;0.00;0.00;;;;;;;;;;5032660;28;20126;-86
2022/08/29 04:41:27;;;;;;;0.00;0.00;;;;;;;;;;5034061;28;20173;-85
2022/08/29 04:43:53;;;;;;;0.00;0.00;;;;;;;;;;5033706;28;20571;-85
2022/08/29 04:46:19;;;;;;;0.00;0.00;;;;;;;;;;5034050;28;20052;-85
2022/08/29 04:48:46;;;;;;;0.00;0.00;;;;;;;;;;5032312;28;20504;-86
2022/08/29 04:51:12;;;;;;;0.00;0.00;;;;;;;;;;5032461;28;20535;-82
2022/08/29 04:53:38;;;;;;;0.00;0.00;;;;;;;;;;5032324;28;20119;-82
2022/08/29 04:56:06;;;;;;;0.00;0.00;;;;;;;;;;5032652;28;20041;-85
2022/08/29 04:58:33;;;;;;;0.00;0.00;;;;;;;;;;5033835;28;20045;-84
2022/08/29 05:00:59;;;;;;;0.00;0.00;;;;;;;;;;5032010;28;20088;-83
2022/08/29 05:03:25;;;;;;;0.00;0.00;;;;;;;;;;5032403;28;20042;-82
2022/08/29 05:05:58;;;;;;;0.00;0.00;;;;;;;;;;5032038;28;20069;-83
2022/08/29 05:08:24;;;;;;;0.00;0.00;;;;;;;;;;5032250;28;20485;-83
2022/08/29 05:10:50;;;;;;;0.00;0.00;;;;;;;;;;5034199;28;20457;-86
2022/08/29 05:13:16;;;;;;;0.00;0.00;;;;;;;;;;5034306;28;20041;-83
2022/08/29 05:15:43;;;;;;;0.00;0.00;;;;;;;;;;5032989;28;20393;-82
2022/08/29 05:18:10;;;;;;;0.00;0.00;;;;;;;;;;5033571;28;20118;-83
2022/08/29 05:20:39;;;;;;;0.00;0.00;;;;;;;;;;5033235;28;20053;-82
2022/08/29 05:23:05;;;;;;;0.00;0.00;;;;;;;;;;5033357;28;20041;-83
2022/08/29 05:25:30;;;;;;;0.00;0.00;;;;;;;;;;5031658;28;20041;-83
2022/08/29 05:27:56;;;;;;;0.00;0.00;;;;;;;;;;5033108;28;20060;-83
2022/08/29 05:30:23;;;;;;;0.00;0.00;;;;;;;;;;5032681;28;20119;-83
2022/08/29 05:32:50;;;;;;;0.00;0.00;;;;;;;;;;5033229;28;20120;-83
2022/08/29 05:35:17;;;;;;;0.00;0.00;;;;;;;;;;5033064;28;20114;-83
2022/08/29 05:37:43;;;;;;;0.00;0.00;;;;;;;;;;5032075;28;20118;-82
2022/08/29 05:40:09;;;;;;;0.00;0.00;;;;;;;;;;5033012;28;20049;-82
2022/08/29 05:42:35;;;;;;;0.00;0.00;;;;;;;;;;5033129;28;20037;-83
2022/08/29 05:45:02;;;;;;;0.00;0.00;;;;;;;;;;5031490;28;20041;-82
2022/08/29 05:47:28;;;;;;;0.00;0.00;;;;;;;;;;5031673;28;20048;-83
2022/08/29 05:49:54;;;;;;;0.00;0.00;;;;;;;;;;5032727;28;20045;-82
2022/08/29 05:52:20;;;;;;;0.00;0.00;;;;;;;;;;5031552;28;20530;-83
2022/08/29 05:54:47;;;;;;;0.00;0.00;;;;;;;;;;5031370;28;20041;-84
2022/08/29 05:57:14;;;;;;;0.00;0.00;;;;;;;;;;5032756;28;20477;-84
2022/08/29 05:59:40;;;;;;;0.00;0.00;;;;;;;;;;5032676;28;20049;-84
2022/08/29 06:02:08;;;;;;;0.00;0.00;;;;;;;;;;5032783;28;20041;-85
2022/08/29 06:04:34;;;;;;;0.00;0.00;;;;;;;;;;5032340;28;20037;-82
2022/08/29 06:07:00;;;;;;;0.00;0.00;;;;;;;;;;5035693;28;20132;-84
2022/08/29 06:09:27;;;;;;;0.00;0.00;;;;;;;;;;5035419;28;20049;-89
2022/08/29 06:11:54;;;;;;;0.00;0.00;;;;;;;;;;5035376;28;20510;-83
2022/08/29 06:14:20;;;;;;;0.00;0.00;;;;;;;;;;5035539;28;20092;-83
2022/08/29 06:16:46;;;;;;;0.00;0.00;;;;;;;;;;5036761;28;20084;-83
2022/08/29 06:19:12;;;;;;;0.00;0.00;;;;;;;;;;5036908;28;20041;-88
2022/08/29 06:21:38;;;;;;;0.00;0.00;;;;;;;;;;5034537;28;20083;-83
2022/08/29 06:24:05;;;;;;;0.00;0.00;;;;;;;;;;5035382;28;20041;-83
2022/08/29 06:26:31;;;;;;;0.00;0.00;;;;;;;;;;5036156;28;20546;-83
2022/08/29 06:28:57;;;;;;;0.00;0.00;;;;;;;;;;5035163;28;20046;-83
2022/08/29 06:31:26;;;;;;;0.00;0.00;;;;;;;;;;5034660;28;20147;-83
2022/08/29 06:33:53;;;;;;;0.00;0.00;;;;;;;;;;5018652;28;20110;-83
2022/08/29 06:36:20;;;;;;;0.00;0.00;;;;;;;;;;5036279;28;20045;-83
2022/08/29 06:38:46;;;;;;;0.00;0.00;;;;;;;;;;5034926;28;20408;-83
2022/08/29 06:41:13;;;;;;;0.00;0.00;;;;;;;;;;5036030;28;20045;-82
2022/08/29 06:43:40;;;;;;;0.00;0.00;;;;;;;;;;5035379;28;20441;-83
2022/08/29 06:46:06;;;;;;;0.00;0.00;;;;;;;;;;5034943;28;20060;-83
2022/08/29 06:48:32;;;;;;;0.00;0.00;;;;;;;;;;5035048;28;20419;-83
2022/08/29 06:51:01;;;;;;;0.00;0.00;;;;;;;;;;5036063;28;20042;-83
2022/08/29 06:53:28;;;;;;;0.00;0.00;;;;;;;;;;5034601;28;20038;-83
2022/08/29 06:55:54;;;;;;;0.00;0.00;;;;;;;;;;5035942;28;20059;-83
2022/08/29 06:58:20;;;;;;;0.00;0.00;;;;;;;;;;5034860;28;20072;-83
2022/08/29 07:00:46;;;;;;;0.10;0.00;;;;;;;;;;5034665;28;20054;-83
2022/08/29 07:03:12;;;;;;;0.00;0.00;;;;;;;;;;5036005;28;20096;-83
2022/08/29 07:05:38;;;;;;;0.00;0.00;;;;;;;;;;5034340;28;20065;-83
2022/08/29 07:08:04;;;;;;;0.00;0.00;;;;;;;;;;5034413;28;20050;-83
2022/08/29 07:10:30;;;;;;;0.00;0.00;;;;;;;;;;5035760;28;20045;-82
2022/08/29 07:12:56;;;;;;;0.00;0.00;;;;;;;;;;5033085;28;20037;-82
2022/08/29 07:15:23;;;;;;;0.00;0.00;;;;;;;;;;5035292;28;20048;-82
2022/08/29 07:17:49;;;;;;;0.00;0.00;;;;;;;;;;5017740;28;20045;-83
2022/08/29 07:20:17;;;;;;;0.00;0.00;;;;;;;;;;5035120;28;20393;-83
2022/08/29 07:22:44;;;;;;;0.00;0.00;;;;;;;;;;5035343;28;20057;-83
2022/08/29 07:25:10;;;;;;;0.00;0.00;;;;;;;;;;5034074;28;20072;-83
2022/08/29 07:27:36;;;;;;;0.00;0.00;;;;;;;;;;5034260;28;20433;-82
2022/08/29 07:30:06;;;;;;;0.00;0.00;;;;;;;;;;5033980;28;20147;-83
2022/08/29 07:32:32;;;;;;;0.00;0.00;;;;;;;;;;5035183;28;20060;-82
2022/08/29 07:34:58;;;;;;;0.00;0.00;;;;;;;;;;5035527;28;20056;-83
2022/08/29 07:37:24;;;;;;;0.00;0.00;;;;;;;;;;5033743;28;20138;-82
2022/08/29 07:39:50;;;;;;;0.00;0.00;;;;;;;;;;5035094;28;20041;-82
2022/08/29 07:42:16;;;;;;;0.00;0.00;;;;;;;;;;5033655;28;20088;-82
2022/08/29 07:44:42;;;;;;;0.00;0.00;;;;;;;;;;5033842;28;20037;-82
2022/08/29 07:47:08;;;;;;;0.20;0.00;;;;;;;;;;5033757;28;20075;-83
2022/08/29 07:49:34;;;;;;;0.00;0.00;;;;;;;;;;5034893;28;20095;-82
2022/08/29 07:52:00;;;;;;;0.00;0.00;;;;;;;;;;5033704;28;20041;-83
2022/08/29 07:54:27;;;;;;;0.00;0.00;;;;;;;;;;5033709;28;20340;-82
2022/08/29 07:56:53;;;;;;;0.00;0.00;;;;;;;;;;5034796;28;20052;-83
2022/08/29 07:59:20;;;;;;;0.00;0.00;;;;;;;;;;5034812;28;20120;-82
2022/08/29 08:01:46;;;;;;;0.00;0.00;;;;;;;;;;5034523;28;20048;-83
2022/08/29 08:04:12;;;;;;;0.00;0.00;;;;;;;;;;5033358;28;20037;-82
2022/08/29 08:06:42;;;;;;;0.00;0.00;;;;;;;;;;5016594;28;20041;-86
2022/08/29 08:09:09;;;;;;;0.00;0.00;;;;;;;;;;5034696;28;20117;-83
2022/08/29 08:11:35;;;;;;;0.00;0.00;;;;;;;;;;5034262;28;20137;-82
2022/08/29 08:14:02;;;;;;;0.00;0.00;;;;;;;;;;5034648;28;20068;-82
2022/08/29 08:16:28;;;;;;;0.00;0.00;;;;;;;;;;5033514;28;20486;-83
2022/08/29 08:18:55;;;;;;;0.00;0.00;;;;;;;;;;5034212;28;20374;-82
2022/08/29 08:21:21;;;;;;;0.00;0.00;;;;;;;;;;5032772;28;20378;-83
2022/08/29 08:23:47;;;;;;;0.00;0.00;;;;;;;;;;5034200;28;20558;-83
2022/08/29 08:26:14;;;;;;;0.00;0.00;;;;;;;;;;5034362;28;20393;-82
2022/08/29 08:28:40;;;;;;;0.00;0.00;;;;;;;;;;5032158;28;20037;-82
2022/08/29 08:31:07;;;;;;;0.00;0.00;;;;;;;;;;5033826;28;20061;-83
2022/08/29 08:33:34;;;;;;;0.00;0.00;;;;;;;;;;5033008;28;20398;-82
2022/08/29 08:36:00;;;;;;;0.00;0.00;;;;;;;;;;5033999;28;20124;-83
2022/08/29 08:38:26;;;;;;;0.00;0.00;;;;;;;;;;5034295;28;20073;-82
2022/08/29 08:41:00;;;;;;;0.00;0.00;;;;;;;;;;5033849;28;20041;-83
2022/08/29 08:43:31;;;;;;;0.00;0.00;;;;;;;;;;5032632;28;20073;-83
2022/08/29 08:45:57;;;;;;;0.00;0.00;;;;;;;;;;5032901;28;20107;-83
2022/08/29 08:48:33;;;;;;;0.00;0.00;;;;;;;;;;5033788;28;20461;-83
2022/08/29 08:51:05;;;;;;;0.00;0.00;;;;;;;;;;5032518;28;20103;-82
2022/08/29 08:53:38;;;;;;;0.00;0.00;;;;;;;;;;5032913;28;20115;-83
2022/08/29 08:56:23;;;;;;;0.00;0.00;;;;;;;;;;5033725;28;20044;-83
2022/08/29 08:58:52;;;;;;;0.00;0.00;;;;;;;;;;5033546;28;20038;-83
2022/08/29 09:01:25;;;;;;;0.00;0.00;;;;;;;;;;5033468;28;20076;-83
2022/08/29 09:03:51;;;;;;;0.00;0.00;;;;;;;;;;5015772;28;20092;-82
2022/08/29 09:06:20;;;;;;;0.00;0.00;;;;;;;;;;5033535;28;20045;-82
2022/08/29 09:08:58;;;;;;;0.00;0.00;;;;;;;;;;5032191;28;20520;-82
2022/08/29 09:11:32;;;;;;;0.00;0.00;;;;;;;;;;5033380;28;20045;-83
2022/08/29 09:14:07;;;;;;;0.00;0.00;;;;;;;;;;5032507;28;20069;-82
2022/08/29 09:16:40;;;;;;;0.00;0.00;;;;;;;;;;5032036;28;20048;-82
2022/08/29 09:19:08;;;;;;;0.00;0.00;;;;;;;;;;5033224;28;20477;-81
2022/08/29 09:21:47;;;;;;;0.00;0.00;;;;;;;;;;5031526;28;20042;-82
2022/08/29 09:24:20;;;;;;;0.00;0.00;;;;;;;;;;5033375;28;20033;-82
2022/08/29 09:26:46;;;;;;;0.00;0.00;;;;;;;;;;5031671;28;20045;-83
2022/08/29 09:29:12;;;;;;;0.00;0.00;;;;;;;;;;5032195;28;20399;-84
2022/08/29 09:31:39;;;;;;;0.00;0.00;;;;;;;;;;5031486;28;20064;-84
2022/08/29 09:34:11;;;;;;;0.00;0.00;;;;;;;;;;5015275;28;20408;-84
2022/08/29 09:36:39;;;;;;;0.00;0.00;;;;;;;;;;5031890;28;20056;-83
2022/08/29 09:39:20;;;;;;;0.00;0.00;;;;;;;;;;5033045;28;20037;-83
2022/08/29 09:41:52;;;;;;;0.00;0.00;;;;;;;;;;5032762;28;20397;-82
2022/08/29 09:44:19;;;;;;;0.00;0.00;;;;;;;;;;5031711;28;20213;-82
2022/08/29 09:46:45;;;;;;;0.00;0.00;;;;;;;;;;5032677;28;20033;-82
2022/08/29 09:49:17;;;;;;;0.00;0.00;;;;;;;;;;5031568;28;20051;-82
2022/08/29 09:51:46;;;;;;;0.00;0.00;;;;;;;;;;5015569;28;20075;-82
2022/08/29 09:54:18;;;;;;;0.00;0.00;;;;;;;;;;5032961;28;20056;-82
2022/08/29 09:56:49;;;;;;;0.00;0.00;;;;;;;;;;5031515;28;20442;-82
2022/08/29 09:59:32;;;;;;;0.00;0.00;;;;;;;;;;5031484;28;20077;-82
2022/08/29 10:02:28;;;;;;;0.00;0.00;;;;;;;;;;5031102;28;20480;-82
2022/08/29 10:05:00;;;;;;;0.00;0.00;;;;;;;;;;5023223;28;20225;-82
2022/08/29 10:07:31;;;;;;;0.00;0.00;;;;;;;;;;5032596;28;20037;-82
2022/08/29 10:09:59;;;;;;;0.00;0.00;;;;;;;;;;5031748;28;20041;-82
2022/08/29 10:12:39;;;;;;;0.00;0.00;;;;;;;;;;5031370;28;20091;-82
2022/08/29 10:15:08;;;;;;;0.00;0.00;;;;;;;;;;5032770;28;20358;-82
2022/08/29 10:20:48;;;;;;;0.00;0.00;;;;;;;;;;5032718;28;20046;-82
2022/08/29 10:23:17;;;;;;;0.00;0.00;;;;;;;;;;5021503;28;20084;-83
2022/08/29 10:25:43;;;;;;;0.00;0.00;;;;;;;;;;5031461;28;20036;-83
2022/08/29 10:28:24;;;;;;;0.00;0.00;;;;;;;;;;5031293;28;20045;-82
2022/08/29 10:31:08;;;;;;;0.00;0.00;;;;;;;;;;5032313;28;20411;-82
2022/08/29 10:33:53;;;;;;;0.00;0.00;;;;;;;;;;5031074;28;20140;-82
2022/08/29 10:36:31;;;;;;;0.00;0.00;;;;;;;;;;5031659;28;20053;-82
2022/08/29 10:39:12;;;;;;;0.00;0.00;;;;;;;;;;5031150;28;20050;-82
2022/08/29 10:41:59;;;;;;;0.00;0.00;;;;;;;;;;5031040;28;20072;-82
2022/08/29 10:44:25;;;;;;;0.00;0.00;;;;;;;;;;5030837;28;20393;-85
2022/08/29 10:47:05;;;;;;;0.00;0.00;;;;;;;;;;5031002;28;20087;-84
2022/08/29 10:49:31;;;;;;;0.00;0.00;;;;;;;;;;5030722;28;20047;-84
2022/08/29 10:52:14;;;;;;;0.00;0.00;;;;;;;;;;5035387;28;20037;-84
2022/08/29 10:54:52;;;;;;;0.00;0.00;;;;;;;;;;5036051;28;20049;-84
2022/08/29 10:57:38;;;;;;;0.00;0.00;;;;;;;;;;5034549;28;20049;-85
2022/08/29 11:00:16;;;;;;;0.00;0.00;;;;;;;;;;5024806;28;20054;-84
2022/08/29 11:03:04;;;;;;;0.00;0.00;;;;;;;;;;5036371;28;20048;-84
2022/08/29 11:05:34;;;;;;;0.00;0.00;;;;;;;;;;5036030;28;20057;-84
2022/08/29 11:08:04;;;;;;;0.00;0.00;;;;;;;;;;5035781;28;20033;-84
2022/08/29 11:10:39;;;;;;;0.00;0.00;;;;;;;;;;5034380;28;20049;-85
2022/08/29 11:13:07;;;;;;;0.00;0.00;;;;;;;;;;5017646;28;20041;-84
2022/08/29 11:15:41;;;;;;;0.00;0.00;;;;;;;;;;5034380;28;20056;-85
2022/08/29 11:18:07;;;;;;;0.00;0.00;;;;;;;;;;5035296;28;20042;-84
2022/08/29 11:20:35;;;;;;;0.00;0.00;;;;;;;;;;5034214;28;20054;-85
2022/08/29 11:23:08;;;;;;;0.00;0.00;;;;;;;;;;5035359;28;20095;-84
2022/08/29 11:25:35;;;;;;;0.00;0.00;;;;;;;;;;5034363;28;20124;-84
2022/08/29 11:28:04;;;;;;;0.00;0.00;;;;;;;;;;5035479;28;20038;-84
2022/08/29 11:30:49;;;;;;;0.00;0.00;;;;;;;;;;5035272;28;20053;-83
2022/08/29 11:33:33;;;;;;;0.00;0.00;;;;;;;;;;5035254;28;20155;-83
2022/08/29 11:36:11;;;;;;;0.00;0.00;;;;;;;;;;5035392;28;20048;-84
2022/08/29 11:38:40;;;;;;;0.00;0.00;;;;;;;;;;5033850;28;20051;-84
2022/08/29 11:41:13;;;;;;;0.05;0.05;;;;;;;;;;5033653;28;20049;-83
2022/08/29 11:43:41;;;;;;;0.00;0.00;;;;;;;;;;5035123;28;20374;-83
2022/08/29 11:46:09;;;;;;;0.00;0.00;;;;;;;;;;5033814;28;20033;-84
2022/08/29 11:48:40;;;;;;;0.00;0.00;;;;;;;;;;5033748;28;20616;-83
2022/08/29 11:51:25;;;;;;;0.00;0.00;;;;;;;;;;5034048;28;20045;-83
2022/08/29 11:53:51;;;;;;;0.00;0.00;;;;;;;;;;5033637;28;20053;-83
2022/08/29 11:56:22;;;;;;;0.00;0.00;;;;;;;;;;5033660;28;20205;-84
2022/08/29 11:58:49;;;;;;;0.00;0.00;;;;;;;;;;5033393;28;20042;-84
2022/08/29 12:01:24;;;;;;;0.00;0.00;;;;;;;;;;5033242;28;20047;-84
2022/08/29 12:04:00;;;;;;;0.00;0.00;;;;;;;;;;5032982;28;20041;-83
2022/08/29 12:06:36;;;;;;;0.00;0.00;;;;;;;;;;5033496;28;20056;-83
2022/08/29 12:09:02;;;;;;;0.00;0.00;;;;;;;;;;5033220;28;20095;-84
2022/08/29 12:11:47;;;;;;;0.00;0.00;;;;;;;;;;5033459;28;20136;-84
2022/08/29 12:14:28;;;;;;;0.00;0.00;;;;;;;;;;5032944;28;20052;-84
2022/08/29 12:16:54;;;;;;;0.00;0.00;;;;;;;;;;5033242;28;20049;-83
2022/08/29 12:19:39;;;;;;;0.00;0.00;;;;;;;;;;5032924;28;20044;-84
2022/08/29 12:22:05;;;;;;;0.00;0.00;;;;;;;;;;5032930;28;20045;-83
2022/08/29 12:24:41;;;;;;;0.00;0.00;;;;;;;;;;5032825;28;20041;-83
2022/08/29 12:27:21;;;;;;;0.00;0.00;;;;;;;;;;5033348;28;20037;-83
2022/08/29 12:29:47;;;;;;;0.00;0.00;;;;;;;;;;5032802;28;20061;-84
2022/08/29 12:32:42;;;;;;;0.00;0.00;;;;;;;;;;5032790;28;20464;-84
2022/08/29 12:35:31;;;;;;;0.00;0.00;;;;;;;;;;5032605;28;20052;-84
2022/08/29 12:37:57;;;;;;;0.00;0.00;;;;;;;;;;5034336;28;20125;-82
2022/08/29 12:40:29;;;;;;;0.00;0.00;;;;;;;;;;5032476;28;20068;-83
2022/08/29 12:43:08;;;;;;;0.00;0.00;;;;;;;;;;5032567;28;20048;-84
2022/08/29 12:45:34;;;;;;;0.00;0.00;;;;;;;;;;5032628;28;20481;-83
2022/08/29 12:48:04;;;;;;;0.00;0.00;;;;;;;;;;5032751;28;20067;-83
2022/08/29 12:50:31;;;;;;;0.00;0.00;;;;;;;;;;5032694;28;20480;-82
2022/08/29 12:53:00;;;;;;;0.00;0.00;;;;;;;;;;5032656;28;20493;-82
2022/08/29 12:55:28;;;;;;;0.00;0.00;;;;;;;;;;5032298;28;20078;-82
2022/08/29 12:57:55;;;;;;;0.00;0.00;;;;;;;;;;5032348;28;20049;-83
2022/08/29 13:00:31;;;;;;;0.00;0.00;;;;;;;;;;5032009;28;20117;-82
2022/08/29 13:03:00;;;;;;;0.00;0.00;;;;;;;;;;5032329;28;20070;-82
2022/08/29 13:05:27;;;;;;;0.00;0.00;;;;;;;;;;5032397;28;20513;-82
2022/08/29 13:08:13;;;;;;;0.00;0.00;;;;;;;;;;5032247;28;20094;-82
2022/08/29 13:10:57;;;;;;;0.00;0.00;;;;;;;;;;5030815;28;20500;-82
2022/08/29 13:13:23;;;;;;;0.00;0.00;;;;;;;;;;5015969;28;20118;-82
2022/08/29 13:15:50;;;;;;;0.00;0.00;;;;;;;;;;5031978;28;20102;-82
2022/08/29 13:18:17;;;;;;;0.00;0.00;;;;;;;;;;5032286;28;20041;-82
2022/08/29 13:20:46;;;;;;;0.00;0.00;;;;;;;;;;5031781;28;20052;-82
2022/08/29 13:23:13;;;;;;;0.00;0.00;;;;;;;;;;5015529;28;20038;-82
2022/08/29 13:25:59;;;;;;;0.00;0.00;;;;;;;;;;5032990;28;20504;-83
2022/08/29 13:28:27;;;;;;;0.00;0.00;;;;;;;;;;5033446;28;20041;-83
2022/08/29 13:31:04;;;;;;;0.00;0.00;;;;;;;;;;5032790;28;20140;-83
2022/08/29 13:33:30;;;;;;;0.00;0.00;;;;;;;;;;5031824;28;20060;-83
2022/08/29 13:35:56;;;;;;;0.00;0.00;;;;;;;;;;5033118;28;20045;-83
2022/08/29 13:38:23;;;;;;;0.00;0.00;;;;;;;;;;5032053;28;20041;-83
2022/08/29 13:40:51;;;;;;;0.20;0.00;;;;;;;;;;5015149;28;20378;-83
2022/08/29 13:43:36;;;;;;;0.00;0.00;;;;;;;;;;5033210;28;20037;-83
2022/08/29 13:46:06;;;;;;;0.00;0.00;;;;;;;;;;5031696;28;20041;-83
2022/08/29 13:48:32;;;;;;;0.00;0.00;;;;;;;;;;5032026;28;20400;-82
2022/08/29 13:51:02;;;;;;;0.00;0.00;;;;;;;;;;5032881;28;20042;-82
2022/08/29 13:53:28;;;;;;;0.00;0.00;;;;;;;;;;5015453;28;20041;-83
2022/08/29 13:55:54;;;;;;;0.00;0.00;;;;;;;;;;5031434;28;20204;-83
2022/08/29 13:58:20;;;;;;;0.00;0.00;;;;;;;;;;5032740;28;20433;-83
2022/08/29 14:00:46;;;;;;;0.00;0.00;;;;;;;;;;5031191;28;20100;-82
2022/08/29 14:03:15;;;;;;;0.00;0.00;;;;;;;;;;5031445;28;20152;-82
2022/08/29 14:05:41;;;;;;;0.00;0.00;;;;;;;;;;5032590;28;20408;-82
2022/08/29 14:08:09;;;;;;;0.00;0.00;;;;;;;;;;5031476;28;20053;-82
2022/08/29 14:10:35;;;;;;;0.00;0.00;;;;;;;;;;5031137;28;20042;-83
2022/08/29 14:13:02;;;;;;;0.00;0.00;;;;;;;;;;5031325;28;20049;-81
2022/08/29 14:15:28;;;;;;;0.00;0.00;;;;;;;;;;5032622;28;20077;-82
2022/08/29 14:17:54;;;;;;;0.00;0.00;;;;;;;;;;5032840;28;20045;-82
2022/08/29 14:20:20;;;;;;;0.00;0.00;;;;;;;;;;5031085;28;20048;-82
2022/08/29 14:22:47;;;;;;;0.00;0.00;;;;;;;;;;5031230;28;20046;-83
2022/08/29 14:25:14;;;;;;;0.00;0.00;;;;;;;;;;5033060;28;20041;-83
2022/08/29 14:27:42;;;;;;;0.00;0.00;;;;;;;;;;5030506;28;20507;-83
2022/08/29 14:30:09;;;;;;;0.00;0.00;;;;;;;;;;5033083;28;20081;-83
2022/08/29 14:32:35;;;;;;;0.00;0.00;;;;;;;;;;5036372;28;20559;-83
2022/08/29 14:35:02;;;;;;;0.00;0.00;;;;;;;;;;5034858;28;20043;-82
2022/08/29 14:37:28;;;;;;;0.00;0.00;;;;;;;;;;5035437;28;20055;-82
2022/08/29 14:39:54;;;;;;;0.00;0.00;;;;;;;;;;5034741;28;20500;-83
2022/08/29 14:42:20;;;;;;;0.00;0.00;;;;;;;;;;5036135;28;20124;-83
2022/08/29 14:44:46;;;;;;;0.00;0.00;;;;;;;;;;5036144;28;20038;-82
2022/08/29 14:47:12;;;;;;;0.00;0.00;;;;;;;;;;5036428;28;20037;-82
2022/08/29 14:49:38;;;;;;;0.00;0.00;;;;;;;;;;5034836;28;20099;-82
2022/08/29 14:52:04;;;;;;;0.00;0.00;;;;;;;;;;5034363;28;20045;-83
2022/08/29 14:54:31;;;;;;;0.00;0.00;;;;;;;;;;5034905;28;20045;-83
2022/08/29 14:56:57;;;;;;;0.00;0.00;;;;;;;;;;5034111;28;20048;-83
2022/08/29 14:59:24;;;;;;;0.00;0.00;;;;;;;;;;5034584;28;20049;-83